Time;durP1;ratioP1;P1;durP2;ratioP2;P2;SDS_P1;SDS_P2;PMS_P1;PMS_P2;Temp;Humidity;BMP_temperature;BMP_pressure;BME280_temperature;BME280_humidity;BME280_pressure;Samples;Min_cycle;Max_cycle;Signal;HPM_P1;HPM_P2
2022/05/05 00:00:12;;;;;;;10.65;7.13;;;;;;;;;;5070502;28;20468;-68
2022/05/05 00:02:38;;;;;;;10.18;7.25;;;;;;;;;;5070271;28;20060;-67
2022/05/05 00:05:04;;;;;;;8.82;6.75;;;;;;;;;;5070289;28;20127;-68
2022/05/05 00:07:29;;;;;;;8.40;6.95;;;;;;;;;;5070243;28;20157;-68
2022/05/05 00:09:55;;;;;;;10.77;6.57;;;;;;;;;;5070342;28;20161;-67
2022/05/05 00:15:05;;;;;;;11.00;7.55;;;;;;;;;;5069854;28;20086;-67
2022/05/05 00:17:33;;;;;;;10.15;7.35;;;;;;;;;;5069740;28;20139;-68
2022/05/05 00:20:00;;;;;;;10.60;7.00;;;;;;;;;;5070068;28;20025;-68
2022/05/05 00:22:25;;;;;;;10.02;7.20;;;;;;;;;;5069918;28;20028;-68
2022/05/05 00:24:51;;;;;;;11.07;7.18;;;;;;;;;;5070112;28;20013;-68
2022/05/05 00:27:16;;;;;;;9.85;6.72;;;;;;;;;;5069360;28;20073;-68
2022/05/05 00:29:42;;;;;;;9.40;7.13;;;;;;;;;;5069890;28;20024;-69
2022/05/05 00:32:07;;;;;;;9.40;7.18;;;;;;;;;;5069620;28;20267;-68
2022/05/05 00:34:33;;;;;;;9.55;6.93;;;;;;;;;;5069853;28;20029;-68
2022/05/05 00:36:58;;;;;;;9.98;7.07;;;;;;;;;;5069378;28;20029;-68
2022/05/05 00:39:24;;;;;;;10.35;6.78;;;;;;;;;;5070048;28;20383;-68
2022/05/05 00:41:50;;;;;;;9.85;7.00;;;;;;;;;;5069617;28;20044;-67
2022/05/05 00:44:16;;;;;;;10.35;7.35;;;;;;;;;;5069779;28;20025;-68
2022/05/05 00:46:51;;;;;;;10.13;7.45;;;;;;;;;;5069444;28;20020;-68
2022/05/05 00:49:18;;;;;;;9.13;6.97;;;;;;;;;;5069866;28;20138;-68
2022/05/05 00:51:44;;;;;;;10.77;6.75;;;;;;;;;;5069565;28;20028;-68
2022/05/05 00:54:09;;;;;;;9.77;7.13;;;;;;;;;;5069857;28;20024;-68
2022/05/05 00:56:36;;;;;;;11.68;7.18;;;;;;;;;;5069402;28;20016;-67
2022/05/05 00:59:02;;;;;;;11.40;7.20;;;;;;;;;;5069725;28;20099;-68
2022/05/05 01:01:27;;;;;;;12.20;7.57;;;;;;;;;;5069364;28;20158;-68
2022/05/05 01:03:53;;;;;;;11.45;7.25;;;;;;;;;;5069751;28;20066;-68
2022/05/05 01:06:19;;;;;;;11.45;7.63;;;;;;;;;;5071203;28;20169;-69
2022/05/05 01:08:46;;;;;;;10.48;7.47;;;;;;;;;;5073586;28;20028;-68
2022/05/05 01:11:12;;;;;;;11.48;7.50;;;;;;;;;;5073509;28;20039;-69
2022/05/05 01:13:39;;;;;;;9.45;7.00;;;;;;;;;;5073533;28;20036;-68
2022/05/05 01:16:05;;;;;;;9.32;7.28;;;;;;;;;;5073582;28;20039;-68
2022/05/05 01:18:31;;;;;;;10.10;7.80;;;;;;;;;;5073367;28;20029;-68
2022/05/05 01:20:56;;;;;;;11.13;7.80;;;;;;;;;;5073429;28;20069;-67
2022/05/05 01:23:22;;;;;;;9.63;7.07;;;;;;;;;;5073284;28;20068;-68
2022/05/05 01:28:34;;;;;;;9.98;7.30;;;;;;;;;;5073413;28;20170;-67
2022/05/05 01:31:01;;;;;;;9.43;6.88;;;;;;;;;;5073143;28;20476;-68
2022/05/05 01:33:28;;;;;;;10.77;7.30;;;;;;;;;;5073472;28;20036;-68
2022/05/05 01:35:58;;;;;;;12.48;7.38;;;;;;;;;;5073373;28;20032;-68
2022/05/05 01:38:39;;;;;;;10.52;7.45;;;;;;;;;;5072817;28;20021;-68
2022/05/05 01:41:12;;;;;;;9.77;7.18;;;;;;;;;;5072696;28;20035;-67
2022/05/05 01:43:39;;;;;;;10.00;7.20;;;;;;;;;;5072830;28;20120;-68
2022/05/05 01:46:05;;;;;;;8.93;7.13;;;;;;;;;;5072746;28;20036;-68
2022/05/05 01:48:32;;;;;;;10.38;7.05;;;;;;;;;;5073003;28;20059;-67
2022/05/05 01:50:57;;;;;;;10.98;7.55;;;;;;;;;;5072854;28;20411;-68
2022/05/05 01:53:23;;;;;;;9.30;6.97;;;;;;;;;;5072848;28;20492;-67
2022/05/05 01:55:49;;;;;;;8.82;7.10;;;;;;;;;;5072786;28;20133;-67
2022/05/05 01:58:14;;;;;;;9.60;7.35;;;;;;;;;;5072420;28;20032;-68
2022/05/05 02:00:40;;;;;;;9.40;7.05;;;;;;;;;;5072546;28;20427;-68
2022/05/05 02:03:12;;;;;;;10.18;7.18;;;;;;;;;;5072377;28;20275;-68
2022/05/05 02:05:40;;;;;;;9.63;6.78;;;;;;;;;;5072855;28;20531;-69
2022/05/05 02:08:05;;;;;;;9.18;7.25;;;;;;;;;;5072298;28;20031;-68
2022/05/05 02:10:31;;;;;;;9.75;7.05;;;;;;;;;;5072694;28;20024;-68
2022/05/05 02:12:58;;;;;;;12.07;7.82;;;;;;;;;;5072254;28;20032;-68
2022/05/05 02:15:24;;;;;;;9.95;7.47;;;;;;;;;;5072250;28;20243;-68
2022/05/05 02:17:51;;;;;;;10.10;7.32;;;;;;;;;;5071650;28;20037;-67
2022/05/05 02:20:16;;;;;;;10.63;7.40;;;;;;;;;;5072487;28;20033;-67
2022/05/05 02:22:42;;;;;;;9.93;7.03;;;;;;;;;;5072271;28;20381;-68
2022/05/05 02:25:08;;;;;;;9.52;7.32;;;;;;;;;;5072482;28;20035;-67
2022/05/05 02:27:53;;;;;;;9.52;6.93;;;;;;;;;;5071942;28;20500;-67
2022/05/05 02:30:20;;;;;;;9.57;6.78;;;;;;;;;;5072178;28;20388;-67
2022/05/05 02:32:47;;;;;;;10.35;7.22;;;;;;;;;;5071997;28;20104;-68
2022/05/05 02:35:13;;;;;;;10.25;6.63;;;;;;;;;;5072127;28;20029;-68
2022/05/05 02:40:22;;;;;;;10.30;7.07;;;;;;;;;;5072901;28;20097;-69
2022/05/05 02:42:48;;;;;;;10.60;6.47;;;;;;;;;;5071675;28;20056;-69
2022/05/05 02:45:13;;;;;;;12.57;7.40;;;;;;;;;;5071884;28;20397;-68
2022/05/05 02:47:39;;;;;;;9.73;6.63;;;;;;;;;;5071582;28;20053;-68
2022/05/05 02:50:04;;;;;;;11.02;6.78;;;;;;;;;;5071875;28;20028;-68
2022/05/05 02:52:30;;;;;;;10.98;7.20;;;;;;;;;;5071513;28;20428;-68
2022/05/05 02:54:56;;;;;;;11.60;7.63;;;;;;;;;;5071717;28;20476;-69
2022/05/05 02:57:23;;;;;;;10.52;7.20;;;;;;;;;;5071615;28;20041;-67
2022/05/05 02:59:53;;;;;;;12.15;7.10;;;;;;;;;;5071669;28;20027;-68
2022/05/05 03:02:19;;;;;;;9.82;7.22;;;;;;;;;;5071552;28;20036;-68
2022/05/05 03:04:45;;;;;;;10.32;7.43;;;;;;;;;;5071443;28;20094;-68
2022/05/05 03:07:10;;;;;;;11.85;7.20;;;;;;;;;;5071125;28;20028;-67
2022/05/05 03:09:36;;;;;;;11.30;6.90;;;;;;;;;;5071033;28;20025;-68
2022/05/05 03:12:02;;;;;;;12.10;7.40;;;;;;;;;;5071497;28;20020;-68
2022/05/05 03:14:27;;;;;;;10.35;7.10;;;;;;;;;;5071000;28;20105;-68
2022/05/05 03:16:53;;;;;;;10.75;6.93;;;;;;;;;;5071006;28;20037;-67
2022/05/05 03:19:18;;;;;;;9.35;7.20;;;;;;;;;;5071195;28;20073;-68
2022/05/05 03:21:44;;;;;;;10.13;7.80;;;;;;;;;;5071042;28;20028;-68
2022/05/05 03:24:10;;;;;;;15.68;7.82;;;;;;;;;;5070811;28;20831;-68
2022/05/05 03:26:35;;;;;;;9.90;7.57;;;;;;;;;;5070885;28;20103;-67
2022/05/05 03:29:01;;;;;;;11.13;7.18;;;;;;;;;;5051828;28;20554;-67
2022/05/05 03:31:26;;;;;;;13.45;7.72;;;;;;;;;;5071151;28;20391;-67
2022/05/05 03:33:53;;;;;;;11.35;7.15;;;;;;;;;;5070841;28;20392;-67
2022/05/05 03:36:18;;;;;;;10.60;7.55;;;;;;;;;;5070892;28;20119;-67
2022/05/05 03:38:44;;;;;;;9.80;7.53;;;;;;;;;;5070531;28;20159;-68
2022/05/05 03:41:09;;;;;;;13.20;6.88;;;;;;;;;;5070497;28;20040;-66
2022/05/05 03:43:35;;;;;;;9.48;7.20;;;;;;;;;;5070291;28;20103;-67
2022/05/05 03:46:00;;;;;;;13.02;7.57;;;;;;;;;;5070536;28;20036;-68
2022/05/05 03:48:26;;;;;;;10.68;6.68;;;;;;;;;;5070249;28;20027;-68
2022/05/05 03:50:52;;;;;;;12.63;7.20;;;;;;;;;;5071179;28;20035;-68
2022/05/05 03:53:18;;;;;;;11.82;7.65;;;;;;;;;;5070298;28;20037;-68
2022/05/05 03:55:43;;;;;;;10.68;7.22;;;;;;;;;;5070745;28;20024;-69
2022/05/05 03:58:09;;;;;;;11.27;7.15;;;;;;;;;;5070041;28;20407;-68
2022/05/05 04:00:34;;;;;;;12.20;7.18;;;;;;;;;;5070165;28;20027;-68
2022/05/05 04:05:43;;;;;;;10.57;7.40;;;;;;;;;;5070815;28;20028;-68
2022/05/05 04:08:09;;;;;;;11.50;6.85;;;;;;;;;;5070112;28;20025;-69
2022/05/05 04:10:34;;;;;;;11.98;7.10;;;;;;;;;;5070353;28;20021;-68
2022/05/05 04:13:00;;;;;;;11.50;7.07;;;;;;;;;;5070390;28;20072;-68
2022/05/05 04:15:26;;;;;;;9.73;6.80;;;;;;;;;;5069887;28;20107;-68
2022/05/05 04:17:51;;;;;;;12.18;7.45;;;;;;;;;;5069968;28;20024;-69
2022/05/05 04:20:17;;;;;;;12.20;7.45;;;;;;;;;;5069949;28;20082;-68
2022/05/05 04:22:43;;;;;;;10.32;7.57;;;;;;;;;;5070307;28;20043;-68
2022/05/05 04:25:12;;;;;;;11.93;7.63;;;;;;;;;;5069997;28;20107;-68
2022/05/05 04:27:39;;;;;;;11.80;7.47;;;;;;;;;;5070019;28;20050;-67
2022/05/05 04:30:06;;;;;;;11.90;8.45;;;;;;;;;;5069728;28;20078;-67
2022/05/05 04:32:31;;;;;;;15.15;8.00;;;;;;;;;;5070123;28;20031;-67
2022/05/05 04:34:57;;;;;;;13.55;8.20;;;;;;;;;;5069736;28;20025;-68
2022/05/05 04:37:22;;;;;;;11.18;7.57;;;;;;;;;;5069741;28;20107;-67
2022/05/05 04:39:48;;;;;;;12.27;8.07;;;;;;;;;;5069529;28;20020;-67
2022/05/05 04:42:13;;;;;;;14.40;7.55;;;;;;;;;;5069806;28;20049;-67
2022/05/05 04:44:38;;;;;;;11.52;7.82;;;;;;;;;;5070044;28;20020;-67
2022/05/05 04:47:04;;;;;;;12.25;7.50;;;;;;;;;;5069727;28;20016;-68
2022/05/05 04:49:31;;;;;;;9.23;7.32;;;;;;;;;;5069436;28;20056;-67
2022/05/05 04:51:56;;;;;;;11.05;7.82;;;;;;;;;;5070174;28;20100;-68
2022/05/05 04:54:22;;;;;;;13.52;8.15;;;;;;;;;;5069641;28;20124;-67
2022/05/05 04:56:48;;;;;;;12.90;7.07;;;;;;;;;;5069865;28;20233;-66
2022/05/05 04:59:13;;;;;;;13.52;7.90;;;;;;;;;;5069460;28;20021;-68
2022/05/05 05:01:39;;;;;;;13.45;8.10;;;;;;;;;;5069922;28;20056;-68
2022/05/05 05:04:06;;;;;;;13.93;8.20;;;;;;;;;;5069451;28;20545;-67
2022/05/05 05:06:32;;;;;;;13.20;8.43;;;;;;;;;;5069918;28;20053;-68
2022/05/05 05:08:57;;;;;;;12.63;8.48;;;;;;;;;;5069240;28;20407;-67
2022/05/05 05:11:23;;;;;;;11.45;8.23;;;;;;;;;;5069680;28;20028;-67
2022/05/05 05:13:49;;;;;;;17.05;8.32;;;;;;;;;;5069678;28;20031;-68
2022/05/05 05:16:14;;;;;;;13.55;8.32;;;;;;;;;;5069489;28;20028;-68
2022/05/05 05:18:40;;;;;;;14.30;8.32;;;;;;;;;;5070037;28;20430;-67
2022/05/05 05:21:05;;;;;;;14.15;9.02;;;;;;;;;;5069450;28;20161;-68
2022/05/05 05:23:31;;;;;;;11.90;8.63;;;;;;;;;;5069692;28;20021;-68
2022/05/05 05:25:56;;;;;;;13.77;8.40;;;;;;;;;;5069648;28;20024;-67
2022/05/05 05:28:21;;;;;;;13.30;8.88;;;;;;;;;;5069357;28;20024;-67
2022/05/05 05:30:47;;;;;;;15.57;8.73;;;;;;;;;;5069526;28;20535;-68
2022/05/05 05:33:13;;;;;;;14.25;8.45;;;;;;;;;;5069554;28;20028;-68
2022/05/05 05:35:39;;;;;;;12.70;8.90;;;;;;;;;;5069457;28;20480;-68
2022/05/05 05:38:04;;;;;;;13.52;9.27;;;;;;;;;;5069274;28;20135;-68
2022/05/05 05:40:30;;;;;;;12.90;9.30;;;;;;;;;;5051000;28;20024;-67
2022/05/05 05:42:56;;;;;;;17.83;9.55;;;;;;;;;;5069091;28;20517;-67
2022/05/05 05:45:21;;;;;;;15.80;9.80;;;;;;;;;;5068874;28;20035;-68
2022/05/05 05:47:47;;;;;;;15.73;9.52;;;;;;;;;;5068903;28;20024;-68
2022/05/05 05:50:12;;;;;;;12.07;8.95;;;;;;;;;;5069395;28;20021;-68
2022/05/05 05:52:38;;;;;;;17.20;9.05;;;;;;;;;;5071641;28;20031;-68
2022/05/05 05:55:04;;;;;;;14.68;9.02;;;;;;;;;;5072870;28;20452;-67
2022/05/05 05:57:30;;;;;;;16.27;9.70;;;;;;;;;;5072887;28;20033;-68
2022/05/05 05:59:56;;;;;;;18.45;10.02;;;;;;;;;;5072257;28;20203;-67
2022/05/05 06:05:06;;;;;;;17.20;10.40;;;;;;;;;;5072408;28;20044;-67
2022/05/05 06:07:32;;;;;;;23.42;11.07;;;;;;;;;;5072570;28;20024;-67
2022/05/05 06:09:57;;;;;;;16.67;10.15;;;;;;;;;;5072277;28;20043;-67
2022/05/05 06:12:23;;;;;;;14.77;10.55;;;;;;;;;;5072884;28;20024;-68
2022/05/05 06:14:48;;;;;;;17.67;10.82;;;;;;;;;;5072093;28;20028;-68
2022/05/05 06:17:14;;;;;;;14.38;10.80;;;;;;;;;;5072183;28;20078;-67
2022/05/05 06:19:39;;;;;;;15.02;9.98;;;;;;;;;;5072124;28;20123;-68
2022/05/05 06:22:04;;;;;;;17.38;10.60;;;;;;;;;;5072080;28;20064;-68
2022/05/05 06:24:30;;;;;;;15.90;10.35;;;;;;;;;;5072383;28;20107;-68
2022/05/05 06:26:55;;;;;;;13.57;9.55;;;;;;;;;;5072244;28;20025;-68
2022/05/05 06:29:21;;;;;;;17.05;10.10;;;;;;;;;;5071814;28;20064;-68
2022/05/05 06:31:47;;;;;;;17.48;10.30;;;;;;;;;;5072215;28;20028;-68
2022/05/05 06:34:12;;;;;;;18.30;9.50;;;;;;;;;;5072054;28;20024;-68
2022/05/05 06:36:37;;;;;;;16.38;9.70;;;;;;;;;;5071838;28;20070;-68
2022/05/05 06:39:03;;;;;;;17.15;9.23;;;;;;;;;;5071730;28;20495;-68
2022/05/05 06:41:28;;;;;;;17.15;9.52;;;;;;;;;;5071704;28;20119;-68
2022/05/05 06:43:55;;;;;;;14.93;8.82;;;;;;;;;;5071811;28;20059;-68
2022/05/05 06:46:21;;;;;;;14.13;8.13;;;;;;;;;;5071509;28;20048;-68
2022/05/05 06:48:46;;;;;;;10.15;7.38;;;;;;;;;;5071674;28;20027;-68
2022/05/05 06:51:12;;;;;;;13.32;7.78;;;;;;;;;;5071641;28;20017;-68
2022/05/05 06:53:37;;;;;;;11.73;8.25;;;;;;;;;;5071097;28;20032;-68
2022/05/05 06:56:03;;;;;;;12.30;7.97;;;;;;;;;;5071511;28;20028;-68
2022/05/05 06:58:28;;;;;;;15.52;8.15;;;;;;;;;;5072025;28;20375;-67
2022/05/05 07:03:38;;;;;;;16.17;9.10;;;;;;;;;;5071537;28;20039;-68
2022/05/05 07:06:05;;;;;;;13.95;8.70;;;;;;;;;;5071400;28;20395;-69
2022/05/05 07:10:52;;;;;;;35.97;19.15;;;;;;;;;;5071826;28;20109;-67
2022/05/05 07:11:19;;;;;;;34.30;17.65;;;;;;;;;;5070961;28;20512;-68
2022/05/05 07:13:45;;;;;;;25.20;15.05;;;;;;;;;;5071440;28;20032;-68
2022/05/05 07:16:11;;;;;;;16.02;10.90;;;;;;;;;;5071073;28;20028;-68
2022/05/05 07:18:36;;;;;;;15.52;9.57;;;;;;;;;;5071173;28;20024;-68
2022/05/05 07:21:02;;;;;;;11.85;7.78;;;;;;;;;;5071042;28;20068;-68
2022/05/05 07:23:28;;;;;;;13.38;7.93;;;;;;;;;;5052906;28;20098;-68
2022/05/05 07:25:53;;;;;;;12.45;7.30;;;;;;;;;;5070764;28;20017;-68
2022/05/05 07:28:18;;;;;;;13.38;8.40;;;;;;;;;;5070853;28;20056;-68
2022/05/05 07:30:44;;;;;;;18.42;8.30;;;;;;;;;;5070479;28;20028;-68
2022/05/05 07:33:10;;;;;;;12.80;7.38;;;;;;;;;;5071026;28;20115;-67
2022/05/05 07:35:38;;;;;;;13.18;7.40;;;;;;;;;;5071172;28;20081;-68
2022/05/05 07:38:04;;;;;;;15.13;7.45;;;;;;;;;;5070632;28;20021;-68
2022/05/05 07:40:29;;;;;;;15.93;7.00;;;;;;;;;;5070599;28;20086;-68
2022/05/05 07:42:55;;;;;;;11.38;7.03;;;;;;;;;;5070252;28;20280;-67
2022/05/05 07:45:21;;;;;;;11.63;7.13;;;;;;;;;;5070494;28;20496;-68
2022/05/05 07:47:47;;;;;;;12.05;6.97;;;;;;;;;;5070552;28;20020;-67
2022/05/05 07:50:12;;;;;;;11.15;5.70;;;;;;;;;;5070608;28;20039;-68
2022/05/05 07:52:38;;;;;;;9.85;5.82;;;;;;;;;;5070327;28;20078;-68
2022/05/05 07:55:04;;;;;;;10.95;5.90;;;;;;;;;;5070708;28;20033;-67
2022/05/05 07:57:30;;;;;;;10.00;5.60;;;;;;;;;;5070229;28;20035;-68
2022/05/05 07:59:55;;;;;;;11.20;5.20;;;;;;;;;;5070089;28;20047;-68
2022/05/05 08:02:21;;;;;;;8.73;5.78;;;;;;;;;;5070229;28;20028;-67
2022/05/05 08:04:46;;;;;;;11.95;5.78;;;;;;;;;;5070375;28;20028;-67
2022/05/05 08:07:12;;;;;;;10.50;5.50;;;;;;;;;;5070129;28;20173;-67
2022/05/05 08:09:38;;;;;;;8.85;5.07;;;;;;;;;;5070169;28;20028;-67
2022/05/05 08:12:05;;;;;;;10.57;4.95;;;;;;;;;;5070117;28;20032;-68
2022/05/05 08:14:31;;;;;;;6.80;4.53;;;;;;;;;;5069655;28;20488;-67
2022/05/05 08:16:57;;;;;;;8.80;5.20;;;;;;;;;;5069933;28;20061;-67
2022/05/05 08:19:23;;;;;;;7.68;4.93;;;;;;;;;;5069961;28;20107;-67
2022/05/05 08:21:49;;;;;;;10.38;4.80;;;;;;;;;;5069546;28;20606;-68
2022/05/05 08:29:43;;;;;;;6.75;4.30;;;;;;;;;;5070196;28;20086;-68
2022/05/05 08:32:08;;;;;;;7.38;4.72;;;;;;;;;;5069806;28;20060;-68
2022/05/05 08:34:34;;;;;;;8.55;5.05;;;;;;;;;;5069974;28;20484;-67
2022/05/05 08:37:00;;;;;;;9.35;4.78;;;;;;;;;;5069717;28;20524;-67
2022/05/05 08:39:26;;;;;;;7.45;4.35;;;;;;;;;;5069728;28;20494;-68
2022/05/05 08:41:53;;;;;;;9.50;4.78;;;;;;;;;;5069563;28;20056;-67
2022/05/05 08:44:19;;;;;;;8.10;4.93;;;;;;;;;;5069966;28;20468;-67
2022/05/05 08:46:45;;;;;;;12.85;4.68;;;;;;;;;;5069873;28;20031;-67
2022/05/05 08:49:13;;;;;;;8.88;4.75;;;;;;;;;;5069668;28;20024;-67
2022/05/05 08:51:43;;;;;;;7.25;4.43;;;;;;;;;;5069843;28;20036;-67
2022/05/05 08:54:13;;;;;;;8.60;4.10;;;;;;;;;;5069791;28;20468;-67
2022/05/05 08:56:39;;;;;;;7.60;4.10;;;;;;;;;;5069544;28;20622;-67
2022/05/05 08:59:07;;;;;;;10.02;4.47;;;;;;;;;;5069735;28;20039;-69
2022/05/05 09:01:39;;;;;;;5.80;4.10;;;;;;;;;;5069954;28;20100;-68
2022/05/05 09:04:06;;;;;;;9.98;4.38;;;;;;;;;;5069841;28;20052;-68
2022/05/05 09:06:44;;;;;;;12.68;4.50;;;;;;;;;;5069683;28;20121;-69
2022/05/05 09:09:34;;;;;;;10.75;4.43;;;;;;;;;;5069515;28;20063;-68
2022/05/05 09:12:20;;;;;;;8.77;4.10;;;;;;;;;;5069434;28;20021;-68
2022/05/05 09:14:53;;;;;;;9.20;3.75;;;;;;;;;;5069396;28;20051;-68
2022/05/05 09:17:28;;;;;;;7.13;3.85;;;;;;;;;;5069625;28;20056;-67
2022/05/05 09:19:55;;;;;;;9.15;4.03;;;;;;;;;;5069457;28;20512;-68
2022/05/05 09:22:23;;;;;;;5.45;3.80;;;;;;;;;;5069268;28;20028;-68
2022/05/05 09:24:51;;;;;;;8.73;4.10;;;;;;;;;;5069420;28;20084;-68
2022/05/05 09:27:25;;;;;;;6.05;3.92;;;;;;;;;;5070881;28;20040;-68
2022/05/05 09:30:12;;;;;;;6.32;4.13;;;;;;;;;;5073122;28;20032;-68
2022/05/05 09:32:47;;;;;;;9.85;4.13;;;;;;;;;;5072944;28;20013;-67
2022/05/05 09:35:19;;;;;;;8.43;4.40;;;;;;;;;;5073446;28;20074;-69
2022/05/05 09:37:50;;;;;;;6.95;4.55;;;;;;;;;;5073142;28;20553;-67
2022/05/05 09:40:34;;;;;;;7.20;4.18;;;;;;;;;;5072896;28;20054;-67
2022/05/05 09:43:01;;;;;;;6.40;4.10;;;;;;;;;;5072564;28;20055;-67
2022/05/05 09:45:33;;;;;;;6.85;4.10;;;;;;;;;;5072589;28;20123;-67
2022/05/05 09:48:03;;;;;;;6.32;3.95;;;;;;;;;;5072812;28;20075;-67
2022/05/05 09:50:31;;;;;;;8.80;4.13;;;;;;;;;;5072966;28;20515;-67
2022/05/05 09:58:35;;;;;;;5.88;3.97;;;;;;;;;;5072797;28;20046;-68
2022/05/05 10:01:08;;;;;;;5.30;3.88;;;;;;;;;;5072297;28;20550;-68
2022/05/05 10:04:03;;;;;;;7.15;3.90;;;;;;;;;;5072228;28;20041;-68
2022/05/05 10:06:40;;;;;;;7.20;4.13;;;;;;;;;;5072612;28;20531;-68
2022/05/05 10:09:08;;;;;;;4.70;3.63;;;;;;;;;;5072317;28;20025;-68
2022/05/05 10:11:34;;;;;;;7.70;3.80;;;;;;;;;;5072791;28;20032;-67
2022/05/05 10:14:01;;;;;;;7.25;3.70;;;;;;;;;;5072254;28;20104;-67
2022/05/05 10:16:30;;;;;;;7.68;3.75;;;;;;;;;;5072256;28;20028;-67
2022/05/05 10:18:56;;;;;;;8.20;3.70;;;;;;;;;;5072012;28;20031;-69
2022/05/05 10:21:50;;;;;;;6.15;4.10;;;;;;;;;;5072240;28;20021;-68
2022/05/05 10:24:22;;;;;;;5.88;3.33;;;;;;;;;;5062098;28;20646;-68
2022/05/05 10:26:55;;;;;;;6.13;3.80;;;;;;;;;;5072257;28;20527;-68
2022/05/05 10:29:39;;;;;;;9.73;3.63;;;;;;;;;;5071827;28;20492;-68
2022/05/05 10:32:26;;;;;;;6.65;4.03;;;;;;;;;;5072257;28;20028;-68
2022/05/05 10:34:53;;;;;;;6.15;4.05;;;;;;;;;;5072023;28;20063;-68
2022/05/05 10:37:22;;;;;;;6.72;3.78;;;;;;;;;;5071463;28;20056;-69
2022/05/05 10:40:10;;;;;;;8.15;3.72;;;;;;;;;;5071373;28;20047;-68
2022/05/05 10:42:41;;;;;;;6.85;3.55;;;;;;;;;;5058322;28;20040;-67
2022/05/05 10:45:07;;;;;;;5.72;3.30;;;;;;;;;;5071857;28;20027;-68
2022/05/05 10:48:06;;;;;;;4.40;3.65;;;;;;;;;;5071938;28;20028;-67
2022/05/05 10:50:54;;;;;;;5.32;3.63;;;;;;;;;;5071594;28;20036;-68
2022/05/05 10:53:30;;;;;;;6.55;3.22;;;;;;;;;;5071453;28;20552;-69
2022/05/05 10:55:56;;;;;;;6.22;3.58;;;;;;;;;;5071560;28;20395;-67
2022/05/05 10:58:59;;;;;;;7.53;3.60;;;;;;;;;;5071424;28;20115;-69
2022/05/05 11:01:26;;;;;;;5.45;3.78;;;;;;;;;;5071582;28;20543;-68
2022/05/05 11:04:24;;;;;;;6.47;3.47;;;;;;;;;;5071455;28;20039;-68
2022/05/05 11:07:23;;;;;;;6.68;3.60;;;;;;;;;;5071915;28;20107;-68
2022/05/05 11:09:48;;;;;;;6.55;3.85;;;;;;;;;;5071172;28;20102;-68
2022/05/05 11:12:21;;;;;;;6.97;3.60;;;;;;;;;;5071429;28;20056;-67
2022/05/05 11:23:47;;;;;;;9.45;4.20;;;;;;;;;;5070941;28;20461;-67
2022/05/05 11:26:17;;;;;;;6.50;3.95;;;;;;;;;;5071233;28;20025;-67
2022/05/05 11:28:44;;;;;;;8.85;4.07;;;;;;;;;;5070691;28;20040;-69
2022/05/05 11:31:24;;;;;;;7.97;3.83;;;;;;;;;;5071133;28;20060;-67
2022/05/05 11:33:54;;;;;;;6.82;3.97;;;;;;;;;;5070858;28;20109;-67
2022/05/05 11:36:20;;;;;;;6.20;3.90;;;;;;;;;;5071109;28;20024;-68
2022/05/05 11:38:46;;;;;;;7.22;3.55;;;;;;;;;;5070737;28;20031;-68
2022/05/05 11:41:16;;;;;;;7.70;4.00;;;;;;;;;;5070507;28;20040;-69
2022/05/05 11:46:26;;;;;;;7.75;3.83;;;;;;;;;;5070672;28;20154;-68
2022/05/05 11:48:56;;;;;;;7.07;3.88;;;;;;;;;;5070171;28;20099;-68
2022/05/05 11:51:23;;;;;;;6.20;3.83;;;;;;;;;;5070642;28;20548;-68
2022/05/05 11:53:49;;;;;;;7.05;3.78;;;;;;;;;;5070318;28;20162;-67
2022/05/05 11:56:15;;;;;;;7.80;4.05;;;;;;;;;;5070678;28;20107;-67
2022/05/05 12:01:38;;;;;;;8.43;3.55;;;;;;;;;;5070268;28;20552;-68
2022/05/05 12:04:04;;;;;;;7.10;3.33;;;;;;;;;;5070041;28;20028;-67
2022/05/05 12:06:31;;;;;;;9.60;3.10;;;;;;;;;;5070287;28;20028;-69
2022/05/05 12:08:57;;;;;;;10.50;2.80;;;;;;;;;;5069961;28;20029;-68
2022/05/05 12:11:29;;;;;;;7.22;2.90;;;;;;;;;;5070232;28;20067;-68
2022/05/05 12:14:06;;;;;;;7.07;2.60;;;;;;;;;;5070048;28;20028;-68
2022/05/05 12:16:34;;;;;;;6.70;2.60;;;;;;;;;;5070236;28;20032;-69
2022/05/05 12:19:00;;;;;;;13.18;2.70;;;;;;;;;;5069987;28;20031;-68
2022/05/05 12:21:26;;;;;;;7.90;2.60;;;;;;;;;;5069742;28;20081;-67
2022/05/05 12:23:59;;;;;;;6.55;2.53;;;;;;;;;;5069795;28;20028;-67
2022/05/05 12:26:34;;;;;;;5.13;2.20;;;;;;;;;;5070332;28;20028;-69
2022/05/05 12:29:00;;;;;;;6.43;2.10;;;;;;;;;;5069809;28;20020;-68
2022/05/05 12:31:29;;;;;;;5.28;2.10;;;;;;;;;;5052072;28;20373;-68
2022/05/05 12:33:55;;;;;;;10.35;2.08;;;;;;;;;;5069866;28;20029;-68
2022/05/05 12:36:28;;;;;;;7.80;2.08;;;;;;;;;;5070150;28;20093;-68
2022/05/05 12:39:09;;;;;;;7.28;2.10;;;;;;;;;;5069749;28;20028;-67
2022/05/05 12:41:35;;;;;;;5.68;2.20;;;;;;;;;;5069322;28;20049;-67
2022/05/05 12:44:10;;;;;;;8.27;2.05;;;;;;;;;;5069739;28;20032;-67
2022/05/05 12:46:50;;;;;;;9.35;2.38;;;;;;;;;;5070079;28;20024;-66
2022/05/05 12:49:33;;;;;;;5.22;2.20;;;;;;;;;;5069785;28;20116;-69
2022/05/05 12:51:58;;;;;;;8.00;2.50;;;;;;;;;;5069609;28;20032;-68
2022/05/05 12:59:55;;;;;;;7.20;2.28;;;;;;;;;;5028004;28;20037;-67
2022/05/05 13:02:20;;;;;;;6.35;2.20;;;;;;;;;;5073498;28;20024;-68
2022/05/05 13:04:48;;;;;;;6.05;2.13;;;;;;;;;;5073795;28;20024;-68
2022/05/05 13:07:14;;;;;;;9.93;2.50;;;;;;;;;;5073736;28;20021;-67
2022/05/05 13:09:39;;;;;;;4.20;2.08;;;;;;;;;;5073697;28;20582;-67
2022/05/05 13:12:05;;;;;;;6.93;2.03;;;;;;;;;;5073568;28;20021;-69
2022/05/05 13:14:31;;;;;;;5.78;2.05;;;;;;;;;;5073228;28;20070;-68
2022/05/05 13:16:58;;;;;;;5.72;2.33;;;;;;;;;;5073653;28;20024;-69
2022/05/05 13:19:25;;;;;;;7.25;2.50;;;;;;;;;;5073566;28;20108;-68
2022/05/05 13:21:51;;;;;;;5.97;1.98;;;;;;;;;;5073304;28;20052;-67
2022/05/05 13:24:16;;;;;;;5.38;2.30;;;;;;;;;;5073614;28;20028;-67
2022/05/05 13:26:44;;;;;;;6.00;2.00;;;;;;;;;;5073355;28;20506;-67
2022/05/05 13:29:10;;;;;;;4.43;1.80;;;;;;;;;;5073164;28;20079;-67
2022/05/05 13:31:35;;;;;;;8.25;2.20;;;;;;;;;;5073132;28;20045;-67
2022/05/05 13:34:01;;;;;;;6.50;1.80;;;;;;;;;;5073717;28;20017;-67
2022/05/05 13:36:27;;;;;;;6.45;2.35;;;;;;;;;;5073206;28;20107;-68
2022/05/05 13:38:52;;;;;;;7.82;2.20;;;;;;;;;;5072884;28;20082;-67
2022/05/05 13:41:18;;;;;;;7.20;1.90;;;;;;;;;;5072455;28;20091;-67
2022/05/05 13:43:43;;;;;;;6.00;1.90;;;;;;;;;;5073070;28;20075;-68
2022/05/05 13:46:09;;;;;;;9.07;2.50;;;;;;;;;;5072585;28;20154;-67
2022/05/05 13:48:38;;;;;;;14.38;2.88;;;;;;;;;;5072831;28;20507;-67
2022/05/05 13:51:04;;;;;;;9.80;2.53;;;;;;;;;;5072427;28;20109;-68
2022/05/05 13:53:31;;;;;;;5.72;1.98;;;;;;;;;;5073186;28;20150;-67
2022/05/05 13:55:56;;;;;;;6.50;2.25;;;;;;;;;;5072683;28;20602;-68
2022/05/05 13:58:24;;;;;;;4.97;2.13;;;;;;;;;;5073153;28;20108;-68
2022/05/05 14:00:49;;;;;;;8.48;3.00;;;;;;;;;;5072564;28;20499;-68
2022/05/05 14:03:15;;;;;;;6.15;2.15;;;;;;;;;;5072646;28;20028;-68
2022/05/05 14:05:40;;;;;;;7.55;2.40;;;;;;;;;;5072291;28;20024;-68
2022/05/05 14:13:34;;;;;;;9.52;2.38;;;;;;;;;;5072357;28;20530;-67
2022/05/05 14:15:59;;;;;;;5.80;2.10;;;;;;;;;;5072123;28;20048;-68
2022/05/05 14:18:25;;;;;;;4.63;1.90;;;;;;;;;;5072680;28;20052;-69
2022/05/05 14:20:50;;;;;;;4.75;1.98;;;;;;;;;;5072069;28;20400;-68
2022/05/05 14:23:16;;;;;;;6.30;2.03;;;;;;;;;;5072335;28;20024;-68
2022/05/05 14:25:42;;;;;;;7.45;1.90;;;;;;;;;;5072254;28;20365;-68
2022/05/05 14:28:08;;;;;;;6.78;2.17;;;;;;;;;;5072448;28;20013;-68
2022/05/05 14:30:33;;;;;;;4.90;2.35;;;;;;;;;;5072016;28;20283;-68
2022/05/05 14:32:59;;;;;;;6.70;2.40;;;;;;;;;;5072455;28;20151;-68
2022/05/05 14:35:24;;;;;;;10.50;2.72;;;;;;;;;;5071769;28;20035;-68
2022/05/05 14:37:49;;;;;;;10.60;2.80;;;;;;;;;;5072062;28;20111;-69
2022/05/05 14:40:15;;;;;;;9.40;2.80;;;;;;;;;;5071849;28;20036;-68
2022/05/05 14:42:41;;;;;;;11.90;3.20;;;;;;;;;;5071657;28;20049;-68
2022/05/05 14:45:07;;;;;;;12.80;3.55;;;;;;;;;;5071809;28;20025;-68
2022/05/05 14:47:33;;;;;;;9.38;2.85;;;;;;;;;;5071804;28;20024;-68
2022/05/05 14:49:59;;;;;;;6.20;2.42;;;;;;;;;;5071948;28;20403;-68
2022/05/05 14:52:25;;;;;;;7.38;2.58;;;;;;;;;;5071456;28;20031;-68
2022/05/05 14:54:50;;;;;;;7.45;2.72;;;;;;;;;;5071668;28;20040;-68
2022/05/05 14:57:20;;;;;;;6.45;2.35;;;;;;;;;;5071515;28;20032;-69
2022/05/05 14:59:47;;;;;;;8.68;2.53;;;;;;;;;;5071483;28;20045;-66
2022/05/05 15:02:14;;;;;;;5.30;2.53;;;;;;;;;;5071271;28;20029;-68
2022/05/05 15:04:41;;;;;;;5.95;2.20;;;;;;;;;;5071812;28;20496;-68
2022/05/05 15:07:06;;;;;;;5.32;2.38;;;;;;;;;;5071590;28;20079;-68
2022/05/05 15:09:32;;;;;;;8.20;2.45;;;;;;;;;;5071727;28;20040;-69
2022/05/05 15:11:57;;;;;;;4.65;2.40;;;;;;;;;;5071372;28;20066;-68
2022/05/05 15:14:24;;;;;;;7.50;2.65;;;;;;;;;;5071233;28;20604;-68
2022/05/05 15:16:49;;;;;;;6.97;2.30;;;;;;;;;;5071123;28;20099;-68
2022/05/05 15:19:14;;;;;;;8.02;2.50;;;;;;;;;;5071594;28;20457;-69
2022/05/05 15:21:40;;;;;;;8.80;2.53;;;;;;;;;;5071056;28;20082;-68
2022/05/05 15:24:06;;;;;;;7.28;2.60;;;;;;;;;;5070463;28;20033;-68
2022/05/05 15:26:33;;;;;;;5.38;2.50;;;;;;;;;;5070873;28;20424;-68
2022/05/05 15:28:58;;;;;;;5.35;2.45;;;;;;;;;;5071090;28;20529;-68
2022/05/05 15:31:24;;;;;;;9.50;2.85;;;;;;;;;;5070555;28;20032;-68